Time;durP1;ratioP1;P1;durP2;ratioP2;P2;SDS_P1;SDS_P2;PMS_P1;PMS_P2;Temp;Humidity;BMP_temperature;BMP_pressure;BME280_temperature;BME280_humidity;BME280_pressure;Samples;Min_cycle;Max_cycle;Signal;HPM_P1;HPM_P2
2022/03/31 00:00:40;;;;;;;7.43;4.50;;;;;;;8.76;52.99;100057.09;6217285;23;20024;-59
2022/03/31 00:03:13;;;;;;;5.38;3.95;;;;;;;8.73;53.78;100052.69;6217673;23;20422;-59
2022/03/31 00:05:40;;;;;;;5.35;3.97;;;;;;;8.70;53.82;100065.88;6216855;23;20377;-60
2022/03/31 00:08:07;;;;;;;8.60;4.20;;;;;;;8.72;54.03;100055.31;6217437;23;20008;-59
2022/03/31 00:10:39;;;;;;;5.72;4.30;;;;;;;8.72;54.37;100056.19;6217202;23;20374;-60
2022/03/31 00:13:07;;;;;;;5.95;4.13;;;;;;;8.72;54.04;100050.94;6217245;23;20005;-59
2022/03/31 00:15:34;;;;;;;7.43;4.78;;;;;;;8.65;54.04;100061.41;6217255;23;20080;-59
2022/03/31 00:18:01;;;;;;;6.78;4.50;;;;;;;8.59;54.18;100058.75;6217032;23;20366;-60
2022/03/31 00:20:27;;;;;;;5.80;4.28;;;;;;;8.66;54.25;100050.03;6216939;23;20000;-58
2022/03/31 00:22:53;;;;;;;8.77;5.15;;;;;;;8.58;54.68;100054.38;6217197;23;20000;-59
2022/03/31 00:25:18;;;;;;;6.97;5.03;;;;;;;8.58;55.06;100051.75;6217047;23;20016;-59
2022/03/31 00:27:44;;;;;;;10.60;5.15;;;;;;;8.46;54.89;100040.25;6217396;23;20012;-59
2022/03/31 00:30:13;;;;;;;7.72;5.00;;;;;;;8.45;55.45;100048.16;6216885;23;20008;-60
2022/03/31 00:32:39;;;;;;;7.65;5.40;;;;;;;8.44;55.44;100041.13;6217276;23;20013;-60
2022/03/31 00:35:06;;;;;;;7.15;5.18;;;;;;;8.39;55.86;100043.72;6216918;23;20058;-60
2022/03/31 00:37:32;;;;;;;7.75;5.38;;;;;;;8.29;55.83;100048.00;6216923;23;20054;-59
2022/03/31 00:39:57;;;;;;;8.30;5.55;;;;;;;8.30;56.26;100043.63;6217279;23;20330;-59
2022/03/31 00:42:26;;;;;;;7.85;5.45;;;;;;;8.29;56.38;100052.38;6258501;22;20012;-59
2022/03/31 00:44:52;;;;;;;9.15;5.57;;;;;;;8.36;55.28;100056.84;6277933;22;20004;-59
2022/03/31 00:47:18;;;;;;;8.90;5.63;;;;;;;8.39;56.38;100050.72;6277807;22;20486;-60
2022/03/31 00:49:44;;;;;;;12.15;5.80;;;;;;;8.41;55.78;100055.16;6277678;22;20006;-60
2022/03/31 00:52:12;;;;;;;9.95;5.82;;;;;;;8.34;56.13;100047.16;6277810;22;20069;-60
2022/03/31 00:54:40;;;;;;;8.73;5.75;;;;;;;8.29;56.71;100044.50;6250458;22;20003;-59
2022/03/31 00:57:07;;;;;;;9.25;5.60;;;;;;;8.31;56.84;100042.78;6277770;22;20000;-59
2022/03/31 00:59:33;;;;;;;9.65;5.78;;;;;;;8.22;56.36;100045.31;6277900;22;20027;-60
2022/03/31 01:01:59;;;;;;;8.23;6.00;;;;;;;8.15;56.82;100046.16;6277518;22;20042;-60
2022/03/31 01:04:27;;;;;;;7.25;5.75;;;;;;;8.09;56.47;100052.22;6277547;22;19999;-60
2022/03/31 01:06:53;;;;;;;8.70;6.20;;;;;;;8.09;57.29;100056.59;6277589;22;20035;-60
2022/03/31 01:09:19;;;;;;;9.85;6.40;;;;;;;8.14;56.92;100054.94;6277659;22;20062;-60
2022/03/31 01:11:46;;;;;;;10.27;6.35;;;;;;;8.16;56.63;100047.91;6277609;22;20007;-60
2022/03/31 01:14:11;;;;;;;10.40;6.25;;;;;;;8.20;57.10;100044.44;6277581;22;20004;-60
2022/03/31 01:16:37;;;;;;;9.98;6.40;;;;;;;8.20;57.00;100042.66;6277510;22;20412;-60
2022/03/31 01:19:08;;;;;;;8.63;6.13;;;;;;;8.28;57.32;100037.47;6277790;22;20003;-60
2022/03/31 01:21:41;;;;;;;9.63;6.43;;;;;;;8.26;56.86;100041.81;6277508;22;20010;-59
2022/03/31 01:24:08;;;;;;;9.02;6.18;;;;;;;8.21;56.91;100031.28;6277323;22;20003;-60
2022/03/31 01:26:36;;;;;;;7.85;6.13;;;;;;;8.20;57.37;100036.53;6277760;22;20026;-60
2022/03/31 01:29:01;;;;;;;15.27;6.90;;;;;;;8.14;57.50;100029.47;6277425;22;20007;-60
2022/03/31 01:31:32;;;;;;;10.73;6.75;;;;;;;8.08;57.73;100026.78;6277470;22;20003;-60
2022/03/31 01:33:58;;;;;;;10.70;7.05;;;;;;;8.03;57.21;100026.75;6277688;22;20010;-60
2022/03/31 01:36:25;;;;;;;11.82;7.00;;;;;;;7.94;58.51;100031.06;6277306;22;20028;-59
2022/03/31 01:38:57;;;;;;;10.73;7.18;;;;;;;7.96;58.45;100027.56;6277709;22;20007;-59
2022/03/31 01:41:23;;;;;;;9.48;6.97;;;;;;;7.96;58.78;100024.94;6276822;22;20069;-59
2022/03/31 01:43:49;;;;;;;10.90;6.88;;;;;;;7.95;59.39;100024.94;6277413;22;20098;-60
2022/03/31 01:46:14;;;;;;;11.75;7.03;;;;;;;7.91;59.72;100012.63;6277247;22;20070;-60
2022/03/31 01:48:39;;;;;;;10.27;7.25;;;;;;;7.90;59.45;100018.75;6277437;22;20015;-60
2022/03/31 01:51:05;;;;;;;10.80;7.53;;;;;;;7.87;59.40;100022.22;6277338;22;20004;-59
2022/03/31 01:53:36;;;;;;;9.13;6.65;;;;;;;7.84;60.56;100019.59;6277275;22;20010;-59
2022/03/31 01:56:03;;;;;;;10.70;6.93;;;;;;;7.84;59.85;100016.97;6277182;22;19999;-59
2022/03/31 01:58:28;;;;;;;10.07;7.35;;;;;;;7.77;60.41;100012.50;6277225;22;20031;-60
2022/03/31 02:00:54;;;;;;;11.90;7.68;;;;;;;7.75;60.75;100009.88;6277395;22;20007;-60
2022/03/31 02:03:19;;;;;;;12.40;7.43;;;;;;;7.81;61.15;100008.16;6277344;22;20393;-60
2022/03/31 02:05:45;;;;;;;14.07;8.20;;;;;;;7.75;61.49;100012.50;6276917;22;20490;-60
2022/03/31 02:08:11;;;;;;;11.25;7.55;;;;;;;7.62;62.43;100012.38;6277027;22;20010;-60
2022/03/31 02:10:36;;;;;;;10.75;7.20;;;;;;;7.58;62.45;100000.97;6276841;22;20004;-60
2022/03/31 02:13:02;;;;;;;11.98;7.25;;;;;;;7.46;62.72;100001.72;6277312;22;20011;-60
2022/03/31 02:15:31;;;;;;;11.20;7.50;;;;;;;7.43;63.46;99993.81;6277056;22;20455;-60
2022/03/31 02:17:57;;;;;;;11.77;7.80;;;;;;;7.37;63.65;99999.00;6276841;22;20004;-60
2022/03/31 02:20:24;;;;;;;12.90;8.07;;;;;;;7.32;63.53;99994.56;6276890;22;20432;-60
2022/03/31 02:22:50;;;;;;;12.00;8.00;;;;;;;7.31;63.55;99992.81;6276920;22;20050;-60
2022/03/31 02:25:16;;;;;;;13.77;8.25;;;;;;;7.29;63.63;99992.78;6276799;22;20421;-60
2022/03/31 02:27:41;;;;;;;12.48;8.18;;;;;;;7.26;64.20;99992.75;6277214;22;20003;-60
2022/03/31 02:30:08;;;;;;;13.90;8.13;;;;;;;7.26;64.40;99985.75;6276931;22;20460;-60
2022/03/31 02:32:35;;;;;;;12.75;8.20;;;;;;;7.26;64.20;99984.88;6276673;22;20007;-61
2022/03/31 02:35:01;;;;;;;11.73;7.90;;;;;;;7.24;64.21;99979.63;6277185;22;20006;-61
2022/03/31 02:37:32;;;;;;;14.30;8.40;;;;;;;7.29;64.20;99982.28;6276831;22;20015;-59
2022/03/31 02:39:58;;;;;;;11.30;7.72;;;;;;;7.26;64.86;99977.00;6276722;22;20007;-59
2022/03/31 02:42:23;;;;;;;12.90;7.75;;;;;;;7.19;64.83;99973.41;6276375;22;20011;-60
2022/03/31 02:44:49;;;;;;;9.82;7.45;;;;;;;7.13;64.61;99978.59;6276712;22;20035;-59
2022/03/31 02:47:14;;;;;;;10.65;7.63;;;;;;;7.09;64.90;99971.56;6276946;22;20008;-60
2022/03/31 02:49:40;;;;;;;11.75;7.88;;;;;;;7.02;64.92;99978.50;6276589;22;20000;-60
2022/03/31 02:52:06;;;;;;;10.05;7.57;;;;;;;7.02;65.82;99968.00;6276713;22;20045;-59
2022/03/31 02:57:18;;;;;;;9.57;6.75;;;;;;;6.99;67.61;99973.22;6276653;22;20107;-59
2022/03/31 02:59:44;;;;;;;10.52;7.35;;;;;;;6.91;68.10;99971.38;6249577;22;20037;-59
2022/03/31 03:02:10;;;;;;;9.70;6.32;;;;;;;6.96;68.01;99969.66;6276297;22;20003;-60
2022/03/31 03:04:36;;;;;;;10.52;7.18;;;;;;;6.93;67.97;99959.13;6276675;22;20027;-60
2022/03/31 03:07:01;;;;;;;9.85;7.03;;;;;;;6.90;68.87;99964.34;6276541;22;20448;-60
2022/03/31 03:09:27;;;;;;;9.88;7.20;;;;;;;6.77;68.84;99951.09;6276415;22;19999;-60
2022/03/31 03:11:52;;;;;;;9.85;7.38;;;;;;;6.69;69.17;99955.34;6276510;22;20003;-59
2022/03/31 03:14:18;;;;;;;10.65;6.97;;;;;;;6.55;69.52;99953.41;6276634;22;20005;-59
2022/03/31 03:16:43;;;;;;;11.32;7.60;;;;;;;6.50;70.05;99948.97;6276234;22;20027;-59
2022/03/31 03:19:09;;;;;;;11.60;7.55;;;;;;;6.46;70.09;99948.91;6276574;22;20004;-60
2022/03/31 03:21:34;;;;;;;10.70;7.05;;;;;;;6.53;69.99;99942.91;6276201;22;20008;-60
2022/03/31 03:24:04;;;;;;;11.10;7.55;;;;;;;6.60;70.11;99943.88;6249302;22;20083;-60
2022/03/31 03:26:30;;;;;;;10.70;7.55;;;;;;;6.57;69.91;99942.06;6276533;22;20007;-60
2022/03/31 03:28:56;;;;;;;11.25;7.63;;;;;;;6.60;70.05;99944.75;6276427;22;20054;-59
2022/03/31 03:31:22;;;;;;;12.25;7.35;;;;;;;6.67;70.09;99953.56;6276365;22;20429;-60
2022/03/31 03:33:47;;;;;;;9.70;7.63;;;;;;;6.69;70.06;99943.97;6276302;22;20014;-60
2022/03/31 03:36:19;;;;;;;10.68;7.32;;;;;;;6.69;70.09;99957.09;6276307;22;20389;-59
2022/03/31 03:38:46;;;;;;;7.30;5.70;;;;;;;6.66;69.85;99946.56;6276436;22;20000;-60
2022/03/31 03:41:13;;;;;;;5.47;4.30;;;;;;;6.62;69.61;99943.00;6276359;22;20000;-59
2022/03/31 03:43:42;;;;;;;4.63;3.85;;;;;;;6.52;69.02;99935.91;6276129;22;20015;-59
2022/03/31 03:46:08;;;;;;;4.95;3.40;;;;;;;6.47;68.52;99951.59;6276440;22;20000;-60
2022/03/31 03:48:34;;;;;;;4.68;3.47;;;;;;;6.44;69.32;99951.53;6276276;22;20429;-60
2022/03/31 03:50:59;;;;;;;4.30;3.40;;;;;;;6.42;69.25;99957.63;6276226;22;20045;-59
2022/03/31 03:53:26;;;;;;;4.13;3.25;;;;;;;6.24;69.73;99959.13;6276629;22;20030;-60
2022/03/31 03:55:51;;;;;;;4.30;3.30;;;;;;;6.24;69.52;99961.75;6276165;22;20007;-59
2022/03/31 03:58:17;;;;;;;5.00;3.50;;;;;;;6.24;69.76;99956.50;6276339;22;20332;-59
2022/03/31 04:00:43;;;;;;;4.50;3.60;;;;;;;6.21;69.46;99961.75;6276135;22;20079;-59
2022/03/31 04:03:09;;;;;;;4.55;3.50;;;;;;;6.06;69.87;99960.63;6276196;22;20031;-60
2022/03/31 04:05:34;;;;;;;5.03;3.47;;;;;;;5.99;69.86;99960.50;6276154;22;20007;-60
2022/03/31 04:08:00;;;;;;;4.00;3.10;;;;;;;5.84;69.80;99955.03;6276347;22;20070;-59
2022/03/31 04:10:26;;;;;;;4.72;3.28;;;;;;;5.83;69.95;99955.91;6276437;22;20053;-59
2022/03/31 04:12:52;;;;;;;4.35;3.08;;;;;;;5.76;70.19;99954.91;6276178;22;19999;-59
2022/03/31 04:15:18;;;;;;;4.40;3.20;;;;;;;5.71;70.37;99958.31;6276494;22;20004;-59
2022/03/31 04:17:44;;;;;;;4.40;3.00;;;;;;;5.70;71.29;99957.44;6275963;22;20011;-59
2022/03/31 04:20:11;;;;;;;4.10;3.10;;;;;;;5.67;70.60;99962.63;6276206;22;20034;-59
2022/03/31 04:22:37;;;;;;;5.35;3.30;;;;;;;5.65;70.19;99951.25;6276376;22;20086;-59
2022/03/31 04:25:04;;;;;;;4.35;3.30;;;;;;;5.66;70.64;99962.59;6276398;22;20019;-59
2022/03/31 04:27:30;;;;;;;5.28;3.30;;;;;;;5.58;71.20;99953.75;6275984;22;20003;-59
2022/03/31 04:29:56;;;;;;;3.80;3.08;;;;;;;5.52;71.33;99962.34;6276844;22;20028;-59
2022/03/31 04:32:21;;;;;;;4.10;3.05;;;;;;;5.50;71.60;99970.19;6278015;22;20061;-60
2022/03/31 04:34:47;;;;;;;4.97;3.30;;;;;;;5.52;71.14;99964.97;6278333;22;20008;-59
2022/03/31 04:37:18;;;;;;;3.92;2.92;;;;;;;5.57;71.92;99962.44;6278230;22;19999;-59
2022/03/31 04:39:44;;;;;;;4.30;3.20;;;;;;;5.53;71.25;99956.28;6278160;22;19999;-60
2022/03/31 04:42:09;;;;;;;6.32;3.10;;;;;;;5.40;71.64;99965.66;6277308;22;20081;-60
2022/03/31 04:44:37;;;;;;;3.60;2.90;;;;;;;5.42;72.97;99966.56;6277890;22;20038;-59
2022/03/31 04:47:07;;;;;;;3.60;2.70;;;;;;;5.39;71.40;99968.25;6250330;22;20012;-60
2022/03/31 04:49:34;;;;;;;4.30;2.80;;;;;;;5.42;72.33;99963.94;6277836;22;20000;-60
2022/03/31 04:52:00;;;;;;;4.05;3.20;;;;;;;5.39;71.68;99969.13;6250668;22;20011;-59
2022/03/31 04:54:26;;;;;;;4.22;3.17;;;;;;;5.42;72.07;99968.31;6277850;22;20004;-59
2022/03/31 04:56:51;;;;;;;4.20;2.80;;;;;;;5.46;72.14;99962.25;6277933;22;20026;-60
2022/03/31 04:59:17;;;;;;;3.85;2.90;;;;;;;5.34;71.65;99972.53;6277916;22;20321;-59
2022/03/31 05:01:42;;;;;;;5.30;2.90;;;;;;;5.28;72.24;99968.06;6277343;22;20053;-60
2022/03/31 05:04:09;;;;;;;4.78;3.22;;;;;;;5.29;71.40;99972.44;6277615;22;20125;-59
2022/03/31 05:06:35;;;;;;;3.05;2.45;;;;;;;5.30;71.87;99968.97;6277746;22;19999;-63
2022/03/31 05:09:02;;;;;;;3.63;2.80;;;;;;;5.33;72.13;99969.03;6277911;22;20000;-59
2022/03/31 05:11:28;;;;;;;3.78;2.83;;;;;;;5.24;71.70;99974.09;6277462;22;20310;-59
2022/03/31 05:13:53;;;;;;;3.30;2.65;;;;;;;5.27;72.54;99967.19;6277546;22;20006;-60
2022/03/31 05:16:19;;;;;;;3.55;2.55;;;;;;;5.28;71.46;99968.94;6277535;22;20014;-60
2022/03/31 05:18:45;;;;;;;3.53;2.80;;;;;;;5.23;72.22;99975.84;6277739;22;20329;-60
2022/03/31 05:21:11;;;;;;;4.38;3.03;;;;;;;5.30;71.93;99970.72;6250548;22;20010;-60
2022/03/31 05:23:37;;;;;;;4.90;2.95;;;;;;;5.27;71.83;99974.16;6277514;22;20004;-60
2022/03/31 05:26:02;;;;;;;4.55;2.90;;;;;;;5.30;72.13;99975.94;6277505;22;20004;-59
2022/03/31 05:28:28;;;;;;;5.72;2.80;;;;;;;5.23;70.97;99978.47;6277466;22;20028;-60
2022/03/31 05:30:56;;;;;;;4.63;2.95;;;;;;;5.24;71.84;99968.88;6277347;22;20000;-59
2022/03/31 05:33:21;;;;;;;3.78;2.88;;;;;;;5.13;71.49;99973.00;6277651;22;20053;-59
2022/03/31 05:35:47;;;;;;;4.85;2.80;;;;;;;5.05;72.09;99972.00;6277376;22;20004;-59
2022/03/31 05:38:13;;;;;;;3.53;2.83;;;;;;;5.03;71.29;99978.09;6277681;22;20004;-60
2022/03/31 05:40:39;;;;;;;4.85;3.17;;;;;;;5.01;71.42;99978.91;6276848;22;20008;-60
2022/03/31 05:43:04;;;;;;;4.53;3.65;;;;;;;5.05;71.31;99982.47;6276423;22;20015;-60
2022/03/31 05:45:30;;;;;;;4.82;2.88;;;;;;;5.01;71.19;99986.75;6277353;22;20004;-60
2022/03/31 05:47:55;;;;;;;3.22;2.60;;;;;;;4.95;71.04;99981.41;6277326;22;20000;-60
2022/03/31 05:50:21;;;;;;;3.70;2.70;;;;;;;4.90;71.64;99985.69;6277404;22;20007;-61
2022/03/31 05:52:46;;;;;;;3.40;2.45;;;;;;;4.69;70.80;99984.38;6277239;22;20011;-60
2022/03/31 05:55:15;;;;;;;3.25;2.30;;;;;;;4.60;71.53;99980.72;6277213;22;20384;-60
2022/03/31 05:57:43;;;;;;;3.97;2.45;;;;;;;4.53;71.74;99988.41;6277121;22;20000;-61
2022/03/31 06:00:13;;;;;;;4.53;2.70;;;;;;;4.50;71.44;99993.59;6277239;22;20076;-60
2022/03/31 06:02:39;;;;;;;2.83;2.30;;;;;;;4.53;71.70;99988.41;6249662;22;20014;-61
2022/03/31 06:05:05;;;;;;;4.57;2.70;;;;;;;4.52;70.88;99985.78;6277535;22;20003;-61
2022/03/31 06:07:32;;;;;;;2.78;2.05;;;;;;;4.61;71.03;99983.34;6276986;22;19999;-61
2022/03/31 06:09:58;;;;;;;3.92;2.90;;;;;;;4.58;71.36;99980.66;6277087;22;19999;-60
2022/03/31 06:12:27;;;;;;;4.75;3.42;;;;;;;4.45;71.28;99983.88;6276943;22;20418;-61
2022/03/31 06:14:52;;;;;;;3.83;2.92;;;;;;;4.42;71.37;99979.47;6277418;22;20035;-60
2022/03/31 06:17:23;;;;;;;3.45;2.33;;;;;;;4.33;70.96;99978.41;6276747;22;19999;-61
2022/03/31 06:19:49;;;;;;;3.40;2.40;;;;;;;4.30;71.55;99981.81;6277064;22;20004;-61
2022/03/31 06:22:14;;;;;;;2.83;2.28;;;;;;;4.30;70.98;99981.81;6277160;22;20018;-61
2022/03/31 06:24:40;;;;;;;4.05;2.47;;;;;;;4.22;71.63;99979.03;6276596;22;20010;-61
2022/03/31 06:27:08;;;;;;;3.30;2.50;;;;;;;4.08;72.48;99983.06;6276439;22;20000;-62
2022/03/31 06:29:34;;;;;;;3.65;2.30;;;;;;;3.97;72.87;99979.31;6276634;22;20007;-61
2022/03/31 06:32:01;;;;;;;3.40;2.22;;;;;;;3.95;72.92;99992.38;6276299;22;20425;-61
2022/03/31 06:34:26;;;;;;;4.63;2.40;;;;;;;3.96;73.36;99988.91;6249692;22;20008;-61
2022/03/31 06:36:51;;;;;;;3.25;2.30;;;;;;;4.07;73.66;99989.16;6276755;22;20303;-61
2022/03/31 06:39:17;;;;;;;2.45;2.05;;;;;;;4.15;72.99;99991.91;6276795;22;19999;-61
2022/03/31 06:41:43;;;;;;;3.05;2.10;;;;;;;4.13;73.93;99994.50;6276468;22;20495;-61
2022/03/31 06:44:12;;;;;;;2.45;2.05;;;;;;;4.12;73.53;99997.09;6276419;22;20012;-61
2022/03/31 06:46:39;;;;;;;4.18;2.30;;;;;;;4.12;72.95;100000.59;6276772;22;20487;-62
2022/03/31 06:49:04;;;;;;;2.90;2.30;;;;;;;4.14;73.62;99991.03;6276633;22;20003;-61
2022/03/31 06:51:30;;;;;;;2.75;2.30;;;;;;;4.13;73.83;100002.34;6276775;22;20014;-61
2022/03/31 06:53:57;;;;;;;2.85;2.25;;;;;;;4.11;73.38;99998.84;6249453;22;20020;-62
2022/03/31 06:56:27;;;;;;;3.92;2.35;;;;;;;4.22;73.14;100001.69;6276604;22;20031;-62
2022/03/31 06:58:54;;;;;;;3.30;2.60;;;;;;;4.28;73.35;99993.97;6276647;22;20057;-62
2022/03/31 07:01:22;;;;;;;3.47;2.65;;;;;;;4.35;73.07;100000.22;6276460;22;20007;-62
2022/03/31 07:03:48;;;;;;;3.70;2.70;;;;;;;4.32;72.97;99995.78;6276958;22;20095;-62
2022/03/31 07:06:14;;;;;;;3.20;2.50;;;;;;;4.37;72.62;99996.81;6276955;22;20023;-63
2022/03/31 07:08:39;;;;;;;3.67;2.60;;;;;;;4.37;72.94;99991.56;6276448;22;20007;-63
2022/03/31 07:11:07;;;;;;;3.47;2.60;;;;;;;4.46;73.25;99993.50;6276550;22;20010;-63
2022/03/31 07:13:33;;;;;;;3.20;2.63;;;;;;;4.43;73.14;99999.53;6276642;22;20004;-63
2022/03/31 07:15:58;;;;;;;3.40;2.80;;;;;;;4.46;73.43;99991.78;6276594;22;20004;-63
2022/03/31 07:18:24;;;;;;;5.40;3.30;;;;;;;4.44;73.18;99996.06;6276321;22;19999;-63
2022/03/31 07:20:52;;;;;;;5.55;4.55;;;;;;;4.52;72.98;99989.28;6276358;22;20000;-63
2022/03/31 07:23:19;;;;;;;5.30;4.53;;;;;;;4.51;73.45;99997.97;6276396;22;20007;-63
2022/03/31 07:25:45;;;;;;;8.18;4.28;;;;;;;4.43;73.01;99996.03;6276236;22;20402;-63
2022/03/31 07:28:10;;;;;;;7.05;4.22;;;;;;;4.38;73.09;99990.72;6276490;22;20000;-63
2022/03/31 07:30:36;;;;;;;4.15;3.35;;;;;;;4.47;73.24;99990.03;6276738;22;19999;-63
2022/03/31 07:33:03;;;;;;;3.92;2.83;;;;;;;4.43;73.84;99985.59;6276535;22;20023;-64
2022/03/31 07:35:32;;;;;;;3.97;3.10;;;;;;;4.45;73.66;99986.47;6276765;22;20007;-63
2022/03/31 07:37:58;;;;;;;4.80;3.00;;;;;;;4.50;73.25;99982.25;6276396;22;20425;-63
2022/03/31 07:40:25;;;;;;;3.75;3.10;;;;;;;4.43;72.79;99999.53;6276469;22;20444;-63
2022/03/31 07:42:53;;;;;;;3.30;2.80;;;;;;;4.48;73.50;99994.41;6275770;22;20090;-63
2022/03/31 07:45:19;;;;;;;4.10;2.90;;;;;;;4.49;74.05;99996.16;6276410;22;20008;-63
2022/03/31 07:47:45;;;;;;;3.58;2.85;;;;;;;4.47;73.65;100004.00;6276235;22;20010;-63
2022/03/31 07:50:13;;;;;;;3.80;3.00;;;;;;;4.52;73.91;99985.78;6276232;22;20003;-64
2022/03/31 07:52:41;;;;;;;3.58;2.92;;;;;;;4.57;74.10;99994.59;6276429;22;20008;-63
2022/03/31 07:55:09;;;;;;;3.70;2.92;;;;;;;4.59;73.98;99987.69;6276671;22;20302;-63
2022/03/31 07:57:35;;;;;;;3.42;2.80;;;;;;;4.55;73.50;99991.09;6276702;22;20004;-63
2022/03/31 08:00:00;;;;;;;5.22;2.85;;;;;;;4.56;74.40;99981.50;6276598;22;20122;-63
2022/03/31 08:02:26;;;;;;;3.10;2.60;;;;;;;4.58;74.45;99988.50;6276183;22;20035;-63
2022/03/31 08:04:53;;;;;;;3.10;2.72;;;;;;;4.62;74.37;99985.09;6277062;22;20031;-63
2022/03/31 08:07:19;;;;;;;3.88;3.15;;;;;;;4.65;74.27;99989.53;6278629;22;20014;-63
2022/03/31 08:09:44;;;;;;;3.50;2.70;;;;;;;4.74;73.23;99993.22;6251423;22;20390;-63
2022/03/31 08:12:10;;;;;;;3.63;2.72;;;;;;;4.71;73.41;99987.94;6278503;22;20360;-63
2022/03/31 08:14:36;;;;;;;3.97;3.10;;;;;;;4.73;73.15;99988.84;6278288;22;20060;-64
2022/03/31 08:17:02;;;;;;;5.18;2.97;;;;;;;4.63;73.75;99986.91;6278087;22;20015;-63
2022/03/31 08:19:30;;;;;;;4.10;2.63;;;;;;;4.53;74.78;99983.19;6278269;22;20011;-64
2022/03/31 08:21:56;;;;;;;4.53;2.83;;;;;;;4.54;73.78;99986.72;6278140;22;20010;-63
2022/03/31 08:24:23;;;;;;;3.75;2.88;;;;;;;4.52;74.73;99988.41;6278421;22;20004;-64
2022/03/31 08:26:50;;;;;;;4.53;2.65;;;;;;;4.61;75.27;99990.31;6278180;22;19999;-64
2022/03/31 08:29:17;;;;;;;3.58;2.60;;;;;;;4.64;74.34;99974.69;6251105;22;20007;-63
2022/03/31 08:31:43;;;;;;;3.25;2.50;;;;;;;4.62;74.59;99982.50;6250743;22;20383;-63
2022/03/31 08:34:08;;;;;;;7.95;2.55;;;;;;;4.61;74.91;99982.47;6278058;22;20004;-62
2022/03/31 08:36:34;;;;;;;2.97;2.45;;;;;;;4.65;75.22;99974.72;6278029;22;20016;-63
2022/03/31 08:39:00;;;;;;;3.10;2.47;;;;;;;4.72;74.93;99974.00;6278325;22;20475;-63
2022/03/31 08:41:28;;;;;;;2.80;2.30;;;;;;;4.81;74.70;99975.91;6250868;22;20008;-63
2022/03/31 08:43:54;;;;;;;2.85;2.40;;;;;;;4.81;74.65;99975.03;6276439;22;20345;-62
2022/03/31 08:46:21;;;;;;;4.07;2.60;;;;;;;4.82;74.79;99980.28;6277911;22;20069;-63
2022/03/31 08:48:46;;;;;;;3.70;2.50;;;;;;;4.88;74.96;99977.81;6277915;22;20003;-63
2022/03/31 08:51:12;;;;;;;3.13;2.33;;;;;;;5.00;75.64;99987.59;6278032;22;20011;-64
2022/03/31 08:53:38;;;;;;;3.75;2.50;;;;;;;5.01;74.93;99981.50;6278310;22;20004;-63
2022/03/31 08:56:04;;;;;;;3.17;2.67;;;;;;;5.08;75.43;99985.16;6278135;22;20035;-63
2022/03/31 08:58:30;;;;;;;3.55;2.40;;;;;;;5.11;75.24;99983.47;6277851;22;20008;-63
2022/03/31 09:00:55;;;;;;;3.28;2.65;;;;;;;5.14;74.58;99987.88;6277960;22;20011;-63
2022/03/31 09:03:33;;;;;;;3.60;2.92;;;;;;;5.13;75.64;99994.84;6277648;22;20018;-64
2022/03/31 09:05:58;;;;;;;3.97;2.70;;;;;;;5.16;75.66;99994.91;6278084;22;20003;-63
2022/03/31 09:08:24;;;;;;;3.63;2.80;;;;;;;5.23;74.83;99993.31;6277726;22;20482;-63
2022/03/31 09:10:53;;;;;;;3.50;2.72;;;;;;;5.23;74.30;99985.44;6277851;22;20008;-63
2022/03/31 09:13:30;;;;;;;2.97;2.67;;;;;;;5.29;74.79;99990.78;6277823;22;20003;-64
2022/03/31 09:16:06;;;;;;;4.43;2.58;;;;;;;5.36;74.96;99989.16;6277231;22;20081;-64
2022/03/31 09:18:34;;;;;;;3.17;2.65;;;;;;;5.35;74.01;100000.47;6249831;22;20035;-64
2022/03/31 09:21:04;;;;;;;3.35;2.58;;;;;;;5.34;74.15;99994.34;6276880;22;20425;-63
2022/03/31 09:23:43;;;;;;;3.85;2.70;;;;;;;5.35;74.97;99990.88;6276936;22;20372;-64
2022/03/31 09:26:31;;;;;;;3.85;2.90;;;;;;;5.32;74.32;99984.72;6277356;22;19999;-63
2022/03/31 09:29:15;;;;;;;4.00;2.58;;;;;;;5.35;74.71;99988.25;6275405;22;20041;-63
2022/03/31 09:31:42;;;;;;;2.97;2.53;;;;;;;5.45;74.69;99998.06;6277244;22;20004;-63
2022/03/31 09:34:08;;;;;;;3.55;2.90;;;;;;;5.49;74.37;99999.88;6276967;22;20467;-63
2022/03/31 09:36:52;;;;;;;4.13;3.15;;;;;;;5.55;73.80;100000.84;6276213;22;20004;-63
2022/03/31 09:39:20;;;;;;;3.40;2.80;;;;;;;5.59;73.93;99990.44;6277267;22;20003;-63
2022/03/31 09:41:48;;;;;;;3.80;3.00;;;;;;;5.60;74.11;100000.06;6276579;22;20007;-63
2022/03/31 09:44:19;;;;;;;5.43;2.83;;;;;;;5.61;74.82;99996.59;6244187;23;20019;-63
2022/03/31 09:46:51;;;;;;;3.65;2.83;;;;;;;5.63;74.57;99994.00;6246358;23;20008;-63
2022/03/31 09:49:18;;;;;;;4.13;3.00;;;;;;;5.64;74.14;99993.13;6246464;23;20000;-63
2022/03/31 09:52:08;;;;;;;4.13;2.97;;;;;;;5.66;74.56;99989.69;6246276;23;20079;-64
2022/03/31 09:54:34;;;;;;;4.70;2.90;;;;;;;5.67;73.75;99988.84;6246482;23;20004;-63
2022/03/31 09:57:07;;;;;;;4.20;3.08;;;;;;;5.72;74.61;99994.16;6245720;23;20441;-63
2022/03/31 09:59:54;;;;;;;3.42;2.80;;;;;;;5.77;73.85;99989.84;6245977;23;20050;-63
2022/03/31 10:02:21;;;;;;;3.83;3.00;;;;;;;5.83;74.15;99984.72;6244679;23;20091;-64
2022/03/31 10:04:46;;;;;;;3.35;2.80;;;;;;;5.82;73.86;99985.56;6244351;23;20401;-63
2022/03/31 10:07:18;;;;;;;4.60;3.63;;;;;;;5.84;74.38;99989.09;6246658;23;20031;-63
2022/03/31 10:09:43;;;;;;;5.10;3.30;;;;;;;5.86;73.92;99996.97;6246531;23;20322;-63
2022/03/31 10:13:04;;;;;;;5.60;3.38;;;;;;;5.97;73.63;99995.47;6246222;23;20111;-64
2022/03/31 10:15:33;;;;;;;7.07;3.10;;;;;;;6.03;74.02;99991.19;6158359;23;20044;-63
2022/03/31 10:18:00;;;;;;;4.18;3.28;;;;;;;6.07;73.41;99985.97;6183446;23;20013;-63
2022/03/31 10:20:26;;;;;;;4.10;3.15;;;;;;;6.15;73.40;99980.00;6158419;23;20009;-63
2022/03/31 10:25:48;;;;;;;4.25;3.22;;;;;;;6.17;72.04;99987.91;6183403;23;20375;-63
2022/03/31 10:28:22;;;;;;;5.15;3.88;;;;;;;6.13;72.99;99983.47;6183208;23;20530;-63
2022/03/31 10:31:07;;;;;;;7.80;4.00;;;;;;;6.18;73.32;99993.16;6183208;23;20009;-63
2022/03/31 10:33:38;;;;;;;4.95;3.83;;;;;;;6.21;72.64;99997.56;6183431;23;20016;-63
2022/03/31 10:36:12;;;;;;;4.85;3.75;;;;;;;6.25;72.88;99988.88;6158280;23;20087;-63
2022/03/31 10:38:39;;;;;;;4.30;3.60;;;;;;;6.26;72.68;99983.66;6184070;23;20005;-61
2022/03/31 10:41:11;;;;;;;6.13;4.60;;;;;;;6.31;72.96;99988.97;6183254;23;20482;-61
2022/03/31 10:43:44;;;;;;;5.72;4.03;;;;;;;6.32;72.57;99985.47;6183011;23;20013;-60
2022/03/31 10:46:19;;;;;;;6.50;4.22;;;;;;;6.38;72.88;99984.69;6183012;23;20084;-62
2022/03/31 10:48:59;;;;;;;5.25;3.83;;;;;;;6.43;71.70;99980.41;6196553;22;20008;-62
2022/03/31 10:51:36;;;;;;;4.78;3.50;;;;;;;6.49;71.81;99978.72;6246233;23;20383;-62
2022/03/31 10:54:02;;;;;;;4.97;3.80;;;;;;;6.58;72.39;99977.06;6245888;23;20406;-62
2022/03/31 10:56:30;;;;;;;4.60;3.55;;;;;;;6.60;70.97;99980.63;6245920;23;20001;-62
2022/03/31 10:58:58;;;;;;;6.53;3.95;;;;;;;6.60;72.23;99980.63;6245908;23;20309;-62
2022/03/31 11:01:39;;;;;;;5.90;4.22;;;;;;;6.58;71.63;99977.94;6245883;23;20004;-62
2022/03/31 11:04:09;;;;;;;5.10;3.90;;;;;;;6.56;72.48;99979.69;6245710;23;20004;-62
2022/03/31 11:06:48;;;;;;;4.72;3.80;;;;;;;6.53;71.73;99975.28;6245998;23;20039;-62
2022/03/31 11:09:27;;;;;;;8.10;6.32;;;;;;;6.53;71.71;99966.53;6245708;23;20008;-63
2022/03/31 11:11:59;;;;;;;4.53;3.80;;;;;;;6.51;71.93;99971.75;6245800;23;20362;-62
2022/03/31 11:14:27;;;;;;;7.35;5.40;;;;;;;6.58;72.25;99974.44;6246109;23;20321;-64
2022/03/31 11:16:53;;;;;;;8.77;6.35;;;;;;;6.48;71.44;99962.97;6243841;23;20386;-62
2022/03/31 11:19:20;;;;;;;7.78;5.43;;;;;;;6.47;72.47;99971.72;6245577;23;20032;-62
2022/03/31 11:21:46;;;;;;;6.35;4.95;;;;;;;6.52;72.55;99964.78;6245318;23;20057;-62
2022/03/31 11:24:13;;;;;;;4.72;3.65;;;;;;;6.59;72.48;99965.72;6245963;23;20008;-63
2022/03/31 11:26:44;;;;;;;4.88;3.90;;;;;;;6.64;72.44;99967.56;6243894;23;20015;-63
2022/03/31 11:29:10;;;;;;;4.50;3.53;;;;;;;6.67;72.21;99961.44;6245494;23;20075;-63
2022/03/31 11:31:36;;;;;;;5.10;3.92;;;;;;;6.67;72.12;99951.81;6243680;23;20004;-63
2022/03/31 11:34:01;;;;;;;5.32;4.20;;;;;;;6.70;72.18;99962.38;6245458;23;20441;-63
2022/03/31 11:36:37;;;;;;;7.25;4.60;;;;;;;6.75;72.13;99962.41;6245420;23;20000;-64
2022/03/31 11:39:04;;;;;;;6.18;3.95;;;;;;;6.68;71.73;99956.22;6245745;23;20461;-63
2022/03/31 11:41:41;;;;;;;13.90;9.05;;;;;;;6.69;72.75;99955.34;6247519;23;20337;-63
2022/03/31 11:44:08;;;;;;;25.20;16.02;;;;;;;6.72;73.07;99952.78;6247912;23;20403;-63
2022/03/31 11:46:42;;;;;;;17.50;11.82;;;;;;;6.72;72.51;99946.63;6248114;23;20000;-63